Calgary International Airport
CYYC : now visible

Airfield :











YOU CAN JOIN US ON...

 
LOGIN :

Register | Disclaimer

   EN    FR    IT 

 









Legend :    VFR   Marginal VFR   IFR   Intensive IFR   Very Intensive IFR
Visi :
Ceiling :
>= 8 km
>= 3000ft
5 to 8 km
1000 to 3000 ft
1500m to 5 km
500 to 1000 ft
800 to 1500m
200 to 500 ft
< 800m
< 200 ft
Symbols :   Thunderstorms  Fog  Heavy snow  Heavy precipitations  Wind > 20 kt






- Airport Elevation : 3557 ft
- IATA code : YYC


CYYC - Calgary International

CURRENT METAR :
  • 030800Z 19006KT 10SM FEW250 19/16 A2988 RMK CI2 SLP103 DENSITY ALT 5000FT

EXPIRED METARs :
  • 030700Z 13009KT 10SM SCT250 20/15 A2989 RMK CI3 SLP103 DENSITY ALT 5100FT
  • 030600Z 15004KT 10SM SCT250 21/15 A2990 RMK CI4 SLP110 DENSITY ALT 5100FT

TAF TAF CYYC
Valid from the 03 at 06:00 until the 04 at 06:00 UTC


030540Z 0306/0406 VRB03KT P6SM FEW200
BECMG 0312/0314 27010KT
FM032100 35015KT P6SM BKN080
TEMPO 0321/0403 P6SM -SHRA OVC080
PROB30 0321/0403 VRB15G25KT 3SM TSRA OVC060CB
FM040300 26012KT P6SM FEW080 RMK NXT FCST BY 030900Z
CZEG FIR / North America



MET'MAP, your aeronautical weather chart ! - Copyright ORBIFLY December 2007 - Disclaimer

ORBIFLY MET'MAP TEAM :

Programming & Development : Alexandra Zaïnal
Concept & original design : Baudouin d'Aumeries
Assistance for programming : Marc-Olivier Méhu
Technical & hardware support : Manuel Goepfert

Contact : metmap@orbifly.com




SOURCES & CREDITS :

   NOAA       Earth
Advisory